ADDS METAR Data INFO
IDs: Format: Raw Decoded Include TAF

Data at: 0308 UTC 17 Jan 2018

KTDZ 170253Z AUTO 23008KT 9SM CLR M17/M19 A3051 RMK AO2 SLP348 T11671194 53006
KTDZ 170153Z AUTO 23008KT 10SM CLR M17/M20 A3050 RMK AO2 SLP343 T11671200
KTDZ 170053Z AUTO 22010KT 10SM CLR M16/M20 A3049 RMK AO2 SLP340 T11611200
KTDZ 162353Z AUTO 23009KT 9SM CLR M16/M19 A3049 RMK AO2 SLP340 60000 T11561194 11139 21156 51017
KTDZ 162253Z AUTO 22008KT 9SM CLR M15/M19 A3047 RMK AO2 SLP334 T11501189
KTDZ 162229Z AUTO 22009KT 8SM SCT029 M15/M18 A3047 RMK AO2 T11501183
KTDZ 162208Z AUTO 23009KT 4SM HZ BKN029 M14/M18 A3047 RMK AO2 T11441183
KTDZ 162153Z AUTO 22009KT 9SM CLR M14/M19 A3046 RMK AO2 SLP329 T11441189
KTDZ 162053Z AUTO 22009KT 9SM CLR M14/M18 A3044 RMK AO2 SNE09 SLP322 P0000 60000 T11391178 53001
KTDZ 162013Z AUTO 24012KT 4SM HZ BKN035 OVC045 M14/M18 A3044 RMK AO2 SNE09 P0000 T11391178
KTDZ 162002Z AUTO 23011KT 2 1/2SM -SN BKN035 OVC045 M14/M18 A3044 RMK AO2 P0000 T11391178
KTDZ 161953Z AUTO 23010KT 1 3/4SM -SN BKN035 OVC043 M14/M18 A3044 RMK AO2 SLP320 P0000 T11391178
KTDZ 161950Z AUTO 25012KT 1 1/2SM -SN BKN035 OVC043 M14/M18 A3044 RMK AO2 P0000
KTDZ 161908Z AUTO 22012KT 2 1/2SM -SN BKN042 OVC050 M14/M18 A3044 RMK AO2 P0000 T11441183
KTDZ 161853Z AUTO 23012KT 5SM -SN BKN042 OVC055 M14/M18 A3044 RMK AO2 SNB53 SLP321 P0000 T11441183
KTDZ 161753Z AUTO 23013KT 5SM HZ SCT033 BKN043 OVC050 M14/M18 A3044 RMK AO2 SLP321 60000 T11441183 11133 21150 58008
KTDZ 161653Z AUTO 24013KT 4SM HZ OVC049 M15/M19 A3045 RMK AO2 SNB19E29 SLP324 P0000 T11501189
KTDZ 161553Z AUTO 24014KT 3SM HZ FEW035 OVC048 M15/M18 A3047 RMK AO2 SNE26 SLP329 P0000 T11501183
KTDZ 161530Z AUTO 23012KT 3SM HZ BKN038 OVC047 M15/M18 A3046 RMK AO2 SNE26 P0000 T11501183
KTDZ 161517Z AUTO 23015KT 2SM -SN SCT038 OVC046 M14/M18 A3046 RMK AO2 P0000 T11441178
KTDZ 161453Z AUTO 23015KT 1 3/4SM -SN FEW028 BKN035 OVC045 M14/M18 A3047 RMK AO2 SLP328 P0000 60000 T11441178 51013
KTDZ 161449Z AUTO 23012KT 2SM -SN SCT030 BKN038 OVC045 M14/M17 A3046 RMK AO2 P0000
KTDZ 161433Z AUTO 23015G20KT 1 1/2SM -SN SCT026 OVC041 M14/M18 A3045 RMK AO2 P0000 T11441178
KTDZ 161408Z AUTO 25013KT 1 3/4SM -SN BKN029 BKN034 OVC041 M14/M17 A3044 RMK AO2 P0000 T11391172
KTDZ 161353Z AUTO 24016KT 2 1/2SM -SN OVC029 M14/M18 A3043 RMK AO2 SNB1259 SLP317 P0000 T11391178
KTDZ 161346Z AUTO 24010KT 2 1/2SM -SN OVC028 M14/M17 A3043 RMK AO2 SNB1259 P0000 T11391172
KTDZ 161253Z AUTO 25013KT 6SM HZ OVC023 M14/M17 A3043 RMK AO2 SNE43 SLP315 P0000 T11391172
KTDZ 161153Z AUTO 24012KT 4SM -SN OVC022 M13/M17 A3042 RMK AO2 SLP312 P0000 60000 T11331167 11094 21133 53014
KTDZ 161053Z AUTO 23013KT 4SM -SN OVC020 M13/M16 A3040 RMK AO2 SNB19 SLP306 P0000 T11331161
KTDZ 160953Z AUTO 22014KT 5SM HZ OVC016 M13/M16 A3039 RMK AO2 SLP301 T11281156
KTDZ 160853Z AUTO 22012KT 7SM OVC014 M12/M15 A3038 RMK AO2 SLP297 T11221150 53013
KTDZ 160753Z AUTO 23011KT 7SM OVC013 M13/M16 A3036 RMK AO2 SLP294 T11331161
KTDZ 160655Z AUTO 24011KT 7SM BKN011 BKN029 M11/M14 A3034 RMK AO2 T11111144
KTDZ 160653Z AUTO 24011KT 7SM SCT011 BKN030 M11/M14 A3034 RMK AO2 SLP284 T11111144
KTDZ 160612Z AUTO 25012KT 6SM HZ BKN012 BKN030 OVC043 M11/M13 A3033 RMK AO2 T11061133
KTDZ 160553Z AUTO 24016G21KT 8SM BKN030 OVC045 M09/M13 A3032 RMK AO2 SLP279 60000 T10941128 11044 21094 53013
KTDZ 160517Z AUTO 24011KT 6SM HZ SCT013 BKN036 OVC050 M07/M10 A3031 RMK AO2 T10721100
KTDZ 160453Z AUTO 23015KT 5SM HZ BKN013 OVC050 M07/M09 A3031 RMK AO2 SLP274 T10671094 410441106
KTDZ 160353Z AUTO 23008KT 7SM OVC055 M05/M07 A3030 RMK AO2 SLP268 T10501072
KTDZ 160253Z AUTO 23008KT 6SM BR OVC060 M04/M07 A3029 RMK AO2 SNB07E37 SLP265 P0000 60000 T10441067 51008
KTDZ 160153Z AUTO 23007KT 5SM BR OVC060 M05/M07 A3028 RMK AO2 SNB21E32 SLP264 P0000 T10501067
KTDZ 160053Z AUTO 20007KT 6SM BR OVC065 M05/M07 A3027 RMK AO2 SNE25 SLP260 P0000 T10501067
KTDZ 152353Z AUTO 19005KT 4SM -SN BR BKN048 OVC070 M04/M07 A3026 RMK AO2 SLP257 P0000 60000 T10441067 11044 21056 53006
KTDZ 152253Z AUTO 18005KT 4SM -SN BR BKN055 OVC070 M05/M07 A3025 RMK AO2 SLP255 P0000 T10501067
KTDZ 152221Z AUTO 17005KT 2SM -SN BR OVC033 M05/M07 A3024 RMK AO2 P0000 T10501067
KTDZ 152214Z AUTO 17006KT 1 1/2SM -SN BR OVC029 M05/M07 A3024 RMK AO2 P0000 T10501067
KTDZ 152153Z AUTO 18006KT 1 3/4SM -SN BR BKN030 M05/M07 A3024 RMK AO2 SLP251 P0000 T10501072
KTDZ 152151Z AUTO 18006KT 1 3/4SM -SN BR BKN030 BKN040 M05/M07 A3024 RMK AO2 P0000
KTDZ 152144Z AUTO 18006KT 2 1/2SM -SN BR FEW022 BKN029 OVC050 M05/M07 A3024 RMK AO2 P0000 T10501072
KTDZ 152119Z AUTO 17005KT 3SM -SN BR FEW014 BKN023 OVC050 M05/M07 A3023 RMK AO2 P0000 T10501072
KTDZ 152107Z AUTO 16006KT 2 1/2SM -SN BR FEW014 BKN037 OVC050 M05/M07 A3023 RMK AO2 P0000 T10501072
KTDZ 152053Z AUTO 17006KT 3SM -SN BR FEW013 BKN033 OVC050 M05/M07 A3022 RMK AO2 SLP244 P0000 60000 T10501072 55008
KTDZ 152046Z AUTO 16004KT 3SM -SN FEW013 BKN033 OVC050 M05/M08 A3022 RMK AO2 P0000 T10501078
KTDZ 152035Z AUTO 16006KT 2SM -SN BR SCT025 BKN033 OVC050 M05/M07 A3022 RMK AO2 P0000 T10501072
KTDZ 152032Z AUTO 16004KT 1 3/4SM -SN BR BKN025 BKN035 OVC050 M06/M07 A3022 RMK AO2 P0000 T10561072
KTDZ 152015Z AUTO 16006KT 1SM -SN BR BKN023 OVC032 M06/M08 A3021 RMK AO2 P0000 T10561078
KTDZ 151957Z AUTO 16005KT 1 3/4SM -SN BR FEW012 BKN029 OVC035 M06/M08 A3021 RMK AO2 P0000 T10561078
KTDZ 151953Z AUTO 16005KT 2 1/2SM -SN BR FEW012 SCT025 OVC031 M06/M08 A3021 RMK AO2 SLP242 P0000 T10561078
KTDZ 151937Z AUTO 16007KT 2SM -SN SCT014 BKN027 OVC039 M06/M08 A3022 RMK AO2 P0000 T10561083
KTDZ 151923Z AUTO 15006KT 2SM -SN FEW014 SCT027 OVC038 M06/M08 A3021 RMK AO2 P0000 T10561083
KTDZ 151909Z AUTO 15009KT 3SM -SN FEW014 OVC038 M06/M08 A3022 RMK AO2 P0000 T10561083
KTDZ 151853Z AUTO 15008KT 1 3/4SM -SN OVC035 M06/M08 A3022 RMK AO2 SLP245 P0000 T10561083
KTDZ 151827Z AUTO 15008KT 1 3/4SM -SN FEW028 OVC035 M06/M09 A3023 RMK AO2 P0000 T10611089
KTDZ 151806Z AUTO 15008KT 2SM -SN BKN037 OVC047 M06/M09 A3024 RMK AO2 P0000 T10611089
KTDZ 151753Z AUTO 15011KT 1 1/2SM -SN BKN037 OVC049 M06/M09 A3025 RMK AO2 SLP252 P0000 60000 T10611089 11061 21094 58027
KTDZ 151727Z AUTO 13009KT 2SM -SN SCT028 BKN036 OVC049 M07/M09 A3026 RMK AO2 P0000 T10671094
KTDZ 151722Z AUTO 14010KT 1 1/2SM -SN FEW013 BKN026 OVC047 M07/M09 A3027 RMK AO2 P0000 T10671094
KTDZ 151710Z AUTO 15011KT 1SM -SN FEW014 BKN029 OVC039 M07/M09 A3028 RMK AO2 P0000 T10671094
KTDZ 151703Z AUTO 15010KT 1 1/4SM -SN FEW014 BKN030 OVC041 M07/M09 A3028 RMK AO2 P0000 T10671094
KTDZ 151653Z AUTO 14011KT 2SM -SN FEW014 BKN037 OVC045 M07/M09 A3029 RMK AO2 SLP267 P0000 T10671094
KTDZ 151638Z AUTO 13007KT 1 1/2SM -SN FEW014 OVC035 M07/M09 A3029 RMK AO2 P0000 T10671094
KTDZ 151630Z AUTO 13009KT 2SM -SN FEW014 BKN032 OVC040 M07/M09 A3030 RMK AO2 P0000 T10671094
KTDZ 151603Z AUTO 14009KT 1 1/4SM -SN OVC024 M07/M10 A3032 RMK AO2 P0000 T10721100
KTDZ 151553Z AUTO 12010KT 1SM -SN BR OVC024 M08/M10 A3032 RMK AO2 SLP278 P0000 T10781100
KTDZ 151533Z AUTO 12009KT 1SM -SN BKN023 OVC030 M08/M11 A3033 RMK AO2 P0000 T10781106
KTDZ 151520Z AUTO 12009KT 1 1/4SM -SN BKN027 OVC037 M08/M11 A3032 RMK AO2 P0000 T10781106